sensor_id;sensor_type;location;lat;lon;timestamp;pressure;altitude;pressure_sealevel;temperature;humidity
50464;BME280;62167;38.552;-121.478;2022-09-01T00:01:40;101005.78;;;36.56;16.06
50464;BME280;62167;38.552;-121.478;2022-09-01T00:04:08;101011.88;;;36.58;15.79
50464;BME280;62167;38.552;-121.478;2022-09-01T00:06:36;101008.91;;;36.54;16.69
50464;BME280;62167;38.552;-121.478;2022-09-01T00:09:08;101008.09;;;36.54;16.37
50464;BME280;62167;38.552;-121.478;2022-09-01T00:11:35;101001.81;;;36.57;16.21
50464;BME280;62167;38.552;-121.478;2022-09-01T00:14:04;100999.38;;;36.47;16.93
50464;BME280;62167;38.552;-121.478;2022-09-01T00:16:32;100990.59;;;36.48;16.72
50464;BME280;62167;38.552;-121.478;2022-09-01T00:18:58;100991.75;;;36.38;16.56
50464;BME280;62167;38.552;-121.478;2022-09-01T00:21:28;100985.31;;;36.38;16.99
50464;BME280;62167;38.552;-121.478;2022-09-01T00:23:55;100980.03;;;36.36;17.52
50464;BME280;62167;38.552;-121.478;2022-09-01T00:26:21;100981.38;;;36.30;17.65
50464;BME280;62167;38.552;-121.478;2022-09-01T00:28:48;100983.03;;;36.31;17.72
50464;BME280;62167;38.552;-121.478;2022-09-01T00:31:15;100978.41;;;36.27;18.31
50464;BME280;62167;38.552;-121.478;2022-09-01T00:33:44;100979.88;;;36.24;17.94
50464;BME280;62167;38.552;-121.478;2022-09-01T00:36:11;100969.81;;;36.23;17.32
50464;BME280;62167;38.552;-121.478;2022-09-01T00:38:37;100964.25;;;36.15;17.59
50464;BME280;62167;38.552;-121.478;2022-09-01T00:41:04;100972.97;;;36.13;16.92
50464;BME280;62167;38.552;-121.478;2022-09-01T00:43:41;100975.31;;;36.11;17.86
50464;BME280;62167;38.552;-121.478;2022-09-01T00:46:25;100976.13;;;36.03;18.12
50464;BME280;62167;38.552;-121.478;2022-09-01T00:49:00;100976.59;;;35.87;18.48
50464;BME280;62167;38.552;-121.478;2022-09-01T00:51:27;100975.59;;;35.83;18.58
50464;BME280;62167;38.552;-121.478;2022-09-01T00:53:56;100971.16;;;35.82;18.85
50464;BME280;62167;38.552;-121.478;2022-09-01T00:56:23;100971.84;;;35.79;19.30
50464;BME280;62167;38.552;-121.478;2022-09-01T00:58:53;100971.34;;;35.69;18.56
50464;BME280;62167;38.552;-121.478;2022-09-01T01:01:19;100967.84;;;35.63;19.10
50464;BME280;62167;38.552;-121.478;2022-09-01T01:03:46;100965.06;;;35.54;18.38
50464;BME280;62167;38.552;-121.478;2022-09-01T01:06:14;100965.22;;;35.49;18.99
50464;BME280;62167;38.552;-121.478;2022-09-01T01:08:45;100967.50;;;35.47;18.69
50464;BME280;62167;38.552;-121.478;2022-09-01T01:11:29;100966.97;;;35.36;18.62
50464;BME280;62167;38.552;-121.478;2022-09-01T01:14:03;100968.75;;;35.32;19.41
50464;BME280;62167;38.552;-121.478;2022-09-01T01:16:39;100968.44;;;35.25;19.68
50464;BME280;62167;38.552;-121.478;2022-09-01T01:25:36;100955.25;;;34.86;19.59
50464;BME280;62167;38.552;-121.478;2022-09-01T01:28:05;100958.88;;;34.87;19.42
50464;BME280;62167;38.552;-121.478;2022-09-01T01:30:33;100963.13;;;34.75;19.69
50464;BME280;62167;38.552;-121.478;2022-09-01T01:33:02;100958.59;;;34.57;18.92
50464;BME280;62167;38.552;-121.478;2022-09-01T01:35:29;100964.84;;;34.54;19.02
50464;BME280;62167;38.552;-121.478;2022-09-01T01:37:56;100966.03;;;34.39;19.25
50464;BME280;62167;38.552;-121.478;2022-09-01T01:40:23;100958.28;;;34.36;18.74
50464;BME280;62167;38.552;-121.478;2022-09-01T01:42:51;100950.97;;;34.26;20.23
50464;BME280;62167;38.552;-121.478;2022-09-01T01:45:21;100956.28;;;34.05;20.11
50464;BME280;62167;38.552;-121.478;2022-09-01T01:47:49;100956.22;;;33.97;19.86
50464;BME280;62167;38.552;-121.478;2022-09-01T01:50:25;100953.44;;;33.97;19.80
50464;BME280;62167;38.552;-121.478;2022-09-01T01:52:53;100945.25;;;33.87;20.35
50464;BME280;62167;38.552;-121.478;2022-09-01T01:55:25;100951.41;;;33.75;20.67
50464;BME280;62167;38.552;-121.478;2022-09-01T01:57:57;100949.88;;;33.69;19.79
50464;BME280;62167;38.552;-121.478;2022-09-01T02:00:27;100949.28;;;33.58;20.45
50464;BME280;62167;38.552;-121.478;2022-09-01T02:02:53;100946.53;;;33.44;20.97
50464;BME280;62167;38.552;-121.478;2022-09-01T02:05:25;100946.94;;;33.38;20.29
50464;BME280;62167;38.552;-121.478;2022-09-01T02:07:57;100946.44;;;33.22;21.21
50464;BME280;62167;38.552;-121.478;2022-09-01T02:10:27;100944.69;;;33.12;20.42
50464;BME280;62167;38.552;-121.478;2022-09-01T02:12:56;100945.41;;;33.04;20.83
50464;BME280;62167;38.552;-121.478;2022-09-01T02:15:29;100939.06;;;32.85;20.90
50464;BME280;62167;38.552;-121.478;2022-09-01T02:17:57;100944.25;;;32.77;20.80
50464;BME280;62167;38.552;-121.478;2022-09-01T02:20:26;100946.41;;;32.67;20.67
50464;BME280;62167;38.552;-121.478;2022-09-01T02:22:57;100940.94;;;32.62;21.33
50464;BME280;62167;38.552;-121.478;2022-09-01T02:25:32;100947.22;;;32.53;20.82
50464;BME280;62167;38.552;-121.478;2022-09-01T02:28:00;100946.75;;;32.33;21.09
50464;BME280;62167;38.552;-121.478;2022-09-01T02:30:29;100957.03;;;32.18;21.16
50464;BME280;62167;38.552;-121.478;2022-09-01T02:33:01;100942.16;;;32.09;21.69
50464;BME280;62167;38.552;-121.478;2022-09-01T02:35:28;100943.97;;;32.00;22.21
50464;BME280;62167;38.552;-121.478;2022-09-01T02:38:01;100946.84;;;31.95;22.06
50464;BME280;62167;38.552;-121.478;2022-09-01T02:40:27;100946.47;;;31.83;22.03
50464;BME280;62167;38.552;-121.478;2022-09-01T02:42:59;100947.81;;;31.66;22.56
50464;BME280;62167;38.552;-121.478;2022-09-01T02:45:26;100955.88;;;31.49;22.82
50464;BME280;62167;38.552;-121.478;2022-09-01T02:47:55;100946.66;;;31.30;23.73
50464;BME280;62167;38.552;-121.478;2022-09-01T02:50:22;100948.91;;;31.27;23.56
50464;BME280;62167;38.552;-121.478;2022-09-01T02:52:50;100953.97;;;31.20;24.08
50464;BME280;62167;38.552;-121.478;2022-09-01T02:55:20;100942.47;;;31.08;24.33
50464;BME280;62167;38.552;-121.478;2022-09-01T02:57:49;100948.03;;;30.84;24.97
50464;BME280;62167;38.552;-121.478;2022-09-01T03:00:17;100946.78;;;30.71;25.14
50464;BME280;62167;38.552;-121.478;2022-09-01T03:02:59;100948.84;;;30.56;25.36
50464;BME280;62167;38.552;-121.478;2022-09-01T03:05:28;100954.41;;;30.56;25.04
50464;BME280;62167;38.552;-121.478;2022-09-01T03:08:05;100946.97;;;30.51;25.55
50464;BME280;62167;38.552;-121.478;2022-09-01T03:10:34;100948.28;;;30.30;25.55
50464;BME280;62167;38.552;-121.478;2022-09-01T03:13:06;100943.38;;;30.21;24.86
50464;BME280;62167;38.552;-121.478;2022-09-01T03:15:34;100952.88;;;30.10;24.92
50464;BME280;62167;38.552;-121.478;2022-09-01T03:18:02;100955.41;;;30.07;25.37
50464;BME280;62167;38.552;-121.478;2022-09-01T03:20:30;100956.97;;;29.84;25.37
50464;BME280;62167;38.552;-121.478;2022-09-01T03:22:59;100952.91;;;29.71;25.63
50464;BME280;62167;38.552;-121.478;2022-09-01T03:25:26;100954.59;;;29.67;25.59
50464;BME280;62167;38.552;-121.478;2022-09-01T03:27:55;100949.09;;;29.57;26.07
50464;BME280;62167;38.552;-121.478;2022-09-01T03:30:24;100956.88;;;29.50;26.30
50464;BME280;62167;38.552;-121.478;2022-09-01T03:32:51;100958.31;;;29.42;26.52
50464;BME280;62167;38.552;-121.478;2022-09-01T03:35:18;100961.66;;;29.39;27.21
50464;BME280;62167;38.552;-121.478;2022-09-01T03:37:44;100960.59;;;29.25;27.42
50464;BME280;62167;38.552;-121.478;2022-09-01T03:40:11;100967.03;;;29.20;27.14
50464;BME280;62167;38.552;-121.478;2022-09-01T03:42:38;100967.31;;;29.13;27.21
50464;BME280;62167;38.552;-121.478;2022-09-01T03:45:05;100963.22;;;29.01;27.33
50464;BME280;62167;38.552;-121.478;2022-09-01T03:47:38;100961.84;;;28.83;27.82
50464;BME280;62167;38.552;-121.478;2022-09-01T03:50:07;100967.16;;;28.79;28.51
50464;BME280;62167;38.552;-121.478;2022-09-01T03:52:53;100964.13;;;28.65;28.24
50464;BME280;62167;38.552;-121.478;2022-09-01T03:55:22;100971.63;;;28.60;28.46
50464;BME280;62167;38.552;-121.478;2022-09-01T03:57:53;100974.69;;;28.43;28.54
50464;BME280;62167;38.552;-121.478;2022-09-01T04:00:24;100980.50;;;28.36;29.11
50464;BME280;62167;38.552;-121.478;2022-09-01T04:02:57;100973.81;;;28.27;29.93
50464;BME280;62167;38.552;-121.478;2022-09-01T04:05:25;100985.47;;;28.19;29.78
50464;BME280;62167;38.552;-121.478;2022-09-01T04:07:57;100987.69;;;28.07;29.03
50464;BME280;62167;38.552;-121.478;2022-09-01T04:10:27;100998.47;;;27.93;29.55
50464;BME280;62167;38.552;-121.478;2022-09-01T04:12:53;100992.63;;;27.79;29.51
50464;BME280;62167;38.552;-121.478;2022-09-01T04:15:25;100985.38;;;27.68;29.80
50464;BME280;62167;38.552;-121.478;2022-09-01T04:17:52;100991.72;;;27.53;29.64
50464;BME280;62167;38.552;-121.478;2022-09-01T04:20:49;100991.69;;;27.43;29.12
50464;BME280;62167;38.552;-121.478;2022-09-01T04:23:24;100994.91;;;27.25;29.16
50464;BME280;62167;38.552;-121.478;2022-09-01T04:28:38;100994.75;;;26.99;29.73
50464;BME280;62167;38.552;-121.478;2022-09-01T04:31:07;100987.81;;;26.97;30.41
50464;BME280;62167;38.552;-121.478;2022-09-01T04:33:36;100983.63;;;26.84;30.27
50464;BME280;62167;38.552;-121.478;2022-09-01T04:36:12;100989.09;;;26.74;30.27
50464;BME280;62167;38.552;-121.478;2022-09-01T04:38:38;100987.66;;;26.71;30.43
50464;BME280;62167;38.552;-121.478;2022-09-01T04:41:05;100983.47;;;26.58;31.22
50464;BME280;62167;38.552;-121.478;2022-09-01T04:43:35;100978.38;;;26.45;31.38
50464;BME280;62167;38.552;-121.478;2022-09-01T04:46:01;100974.47;;;26.41;31.43
50464;BME280;62167;38.552;-121.478;2022-09-01T04:48:28;100974.91;;;26.28;31.74
50464;BME280;62167;38.552;-121.478;2022-09-01T04:50:56;100980.03;;;26.14;31.58
50464;BME280;62167;38.552;-121.478;2022-09-01T04:53:23;100979.44;;;26.07;31.81
50464;BME280;62167;38.552;-121.478;2022-09-01T04:55:49;100976.63;;;26.02;32.38
50464;BME280;62167;38.552;-121.478;2022-09-01T04:58:18;100979.28;;;25.92;32.09
50464;BME280;62167;38.552;-121.478;2022-09-01T05:00:48;100980.28;;;25.80;32.23
50464;BME280;62167;38.552;-121.478;2022-09-01T05:03:17;100981.44;;;25.62;32.75
50464;BME280;62167;38.552;-121.478;2022-09-01T05:05:49;100987.22;;;25.61;32.94
50464;BME280;62167;38.552;-121.478;2022-09-01T05:08:17;100979.66;;;25.51;33.17
50464;BME280;62167;38.552;-121.478;2022-09-01T05:10:47;100976.03;;;25.46;33.75
50464;BME280;62167;38.552;-121.478;2022-09-01T05:13:16;100975.38;;;25.39;33.87
50464;BME280;62167;38.552;-121.478;2022-09-01T05:15:45;100972.13;;;25.20;33.49
50464;BME280;62167;38.552;-121.478;2022-09-01T05:18:17;100978.47;;;25.20;34.08
50464;BME280;62167;38.552;-121.478;2022-09-01T05:20:50;100978.06;;;25.12;34.76
50464;BME280;62167;38.552;-121.478;2022-09-01T05:23:17;100964.78;;;25.08;34.45
50464;BME280;62167;38.552;-121.478;2022-09-01T05:25:49;100968.03;;;25.05;34.75
50464;BME280;62167;38.552;-121.478;2022-09-01T05:28:17;100967.00;;;24.90;36.07
50464;BME280;62167;38.552;-121.478;2022-09-01T05:30:46;100966.34;;;24.82;35.53
50464;BME280;62167;38.552;-121.478;2022-09-01T05:33:14;100966.53;;;24.76;35.87
50464;BME280;62167;38.552;-121.478;2022-09-01T05:35:55;100958.53;;;24.57;35.17
50464;BME280;62167;38.552;-121.478;2022-09-01T05:38:25;100954.03;;;24.51;35.49
50464;BME280;62167;38.552;-121.478;2022-09-01T05:41:01;100951.22;;;24.46;35.67
50464;BME280;62167;38.552;-121.478;2022-09-01T05:43:28;100951.66;;;24.38;35.97
50464;BME280;62167;38.552;-121.478;2022-09-01T05:45:56;100955.81;;;24.24;36.51
50464;BME280;62167;38.552;-121.478;2022-09-01T05:48:23;100948.88;;;24.21;36.52
50464;BME280;62167;38.552;-121.478;2022-09-01T05:50:50;100954.03;;;24.18;36.82
50464;BME280;62167;38.552;-121.478;2022-09-01T05:53:25;100950.03;;;24.08;36.88
50464;BME280;62167;38.552;-121.478;2022-09-01T05:55:53;100949.69;;;23.88;37.31
50464;BME280;62167;38.552;-121.478;2022-09-01T05:58:26;100951.53;;;23.83;37.20
50464;BME280;62167;38.552;-121.478;2022-09-01T06:00:54;100969.84;;;23.77;38.49
50464;BME280;62167;38.552;-121.478;2022-09-01T06:03:23;100968.06;;;23.71;38.69
50464;BME280;62167;38.552;-121.478;2022-09-01T06:05:51;100963.44;;;23.60;38.55
50464;BME280;62167;38.552;-121.478;2022-09-01T06:08:21;100963.91;;;23.56;39.41
50464;BME280;62167;38.552;-121.478;2022-09-01T06:10:48;100973.75;;;23.52;39.46
50464;BME280;62167;38.552;-121.478;2022-09-01T06:13:16;100983.56;;;23.48;39.39
50464;BME280;62167;38.552;-121.478;2022-09-01T06:15:49;100973.56;;;23.42;39.60
50464;BME280;62167;38.552;-121.478;2022-09-01T06:18:18;100972.03;;;23.35;39.95
50464;BME280;62167;38.552;-121.478;2022-09-01T06:20:47;100970.97;;;23.24;40.05
50464;BME280;62167;38.552;-121.478;2022-09-01T06:23:15;100964.66;;;23.23;40.48
50464;BME280;62167;38.552;-121.478;2022-09-01T06:25:46;100966.56;;;23.11;41.00
50464;BME280;62167;38.552;-121.478;2022-09-01T06:28:16;100967.34;;;23.07;41.29
50464;BME280;62167;38.552;-121.478;2022-09-01T06:30:46;100967.22;;;23.01;41.56
50464;BME280;62167;38.552;-121.478;2022-09-01T06:33:12;100971.53;;;22.97;42.02
50464;BME280;62167;38.552;-121.478;2022-09-01T06:35:40;100967.91;;;22.85;42.30
50464;BME280;62167;38.552;-121.478;2022-09-01T06:38:09;100972.72;;;22.78;42.68
50464;BME280;62167;38.552;-121.478;2022-09-01T06:40:37;100972.00;;;22.71;42.36
50464;BME280;62167;38.552;-121.478;2022-09-01T06:43:05;100970.19;;;22.65;42.99
50464;BME280;62167;38.552;-121.478;2022-09-01T06:45:43;100975.34;;;22.61;43.31
50464;BME280;62167;38.552;-121.478;2022-09-01T06:48:14;100977.00;;;22.50;43.30
50464;BME280;62167;38.552;-121.478;2022-09-01T06:50:46;100965.78;;;22.40;43.60
50464;BME280;62167;38.552;-121.478;2022-09-01T06:53:12;100970.69;;;22.38;44.16
50464;BME280;62167;38.552;-121.478;2022-09-01T06:55:46;100974.38;;;22.32;44.22
50464;BME280;62167;38.552;-121.478;2022-09-01T06:58:13;100974.50;;;22.25;44.39
50464;BME280;62167;38.552;-121.478;2022-09-01T07:00:41;100977.00;;;22.15;44.51
50464;BME280;62167;38.552;-121.478;2022-09-01T07:03:09;100979.13;;;22.13;44.66
50464;BME280;62167;38.552;-121.478;2022-09-01T07:05:40;100978.97;;;22.08;45.62
50464;BME280;62167;38.552;-121.478;2022-09-01T07:08:10;100979.31;;;22.00;45.47
50464;BME280;62167;38.552;-121.478;2022-09-01T07:10:44;100984.06;;;21.93;45.52
50464;BME280;62167;38.552;-121.478;2022-09-01T07:13:18;100985.38;;;21.90;45.78
50464;BME280;62167;38.552;-121.478;2022-09-01T07:15:49;100989.88;;;21.85;45.76
50464;BME280;62167;38.552;-121.478;2022-09-01T07:18:17;100985.22;;;21.85;45.72
50464;BME280;62167;38.552;-121.478;2022-09-01T07:20:47;100990.78;;;21.79;45.47
50464;BME280;62167;38.552;-121.478;2022-09-01T07:23:15;100990.31;;;21.70;46.01
50464;BME280;62167;38.552;-121.478;2022-09-01T07:25:51;100990.31;;;21.70;46.26
50464;BME280;62167;38.552;-121.478;2022-09-01T07:28:23;100985.28;;;21.67;45.73
50464;BME280;62167;38.552;-121.478;2022-09-01T07:30:50;100991.69;;;21.61;45.82
50464;BME280;62167;38.552;-121.478;2022-09-01T07:33:20;100990.19;;;21.46;46.05
50464;BME280;62167;38.552;-121.478;2022-09-01T07:35:48;100991.34;;;21.39;46.56
50464;BME280;62167;38.552;-121.478;2022-09-01T07:38:16;100990.50;;;21.38;46.22
50464;BME280;62167;38.552;-121.478;2022-09-01T07:40:44;100991.19;;;21.34;46.22
50464;BME280;62167;38.552;-121.478;2022-09-01T07:43:18;100995.25;;;21.31;46.22
50464;BME280;62167;38.552;-121.478;2022-09-01T07:45:51;100980.53;;;21.25;46.47
50464;BME280;62167;38.552;-121.478;2022-09-01T07:48:22;100991.09;;;21.22;46.87
50464;BME280;62167;38.552;-121.478;2022-09-01T07:50:51;100987.63;;;21.15;47.81
50464;BME280;62167;38.552;-121.478;2022-09-01T07:53:24;100983.94;;;21.03;47.55
50464;BME280;62167;38.552;-121.478;2022-09-01T07:55:53;100983.94;;;21.03;47.26
50464;BME280;62167;38.552;-121.478;2022-09-01T07:58:22;100988.81;;;21.01;47.62
50464;BME280;62167;38.552;-121.478;2022-09-01T08:00:50;100979.38;;;20.96;47.59
50464;BME280;62167;38.552;-121.478;2022-09-01T08:03:21;100985.78;;;20.90;47.42
50464;BME280;62167;38.552;-121.478;2022-09-01T08:05:47;100992.34;;;20.89;47.84
50464;BME280;62167;38.552;-121.478;2022-09-01T08:08:19;100988.22;;;20.80;47.98
50464;BME280;62167;38.552;-121.478;2022-09-01T08:10:46;100984.00;;;20.78;48.26
50464;BME280;62167;38.552;-121.478;2022-09-01T08:13:13;100990.41;;;20.71;48.23
50464;BME280;62167;38.552;-121.478;2022-09-01T08:15:40;100981.59;;;20.69;48.20
50464;BME280;62167;38.552;-121.478;2022-09-01T08:18:06;100984.84;;;20.60;48.83
50464;BME280;62167;38.552;-121.478;2022-09-01T08:20:33;100985.28;;;20.57;48.51
50464;BME280;62167;38.552;-121.478;2022-09-01T08:23:03;100986.34;;;20.56;48.47
50464;BME280;62167;38.552;-121.478;2022-09-01T08:25:32;100990.31;;;20.60;48.29
50464;BME280;62167;38.552;-121.478;2022-09-01T08:28:00;100982.16;;;20.53;47.97
50464;BME280;62167;38.552;-121.478;2022-09-01T08:30:28;100985.97;;;20.45;48.64
50464;BME280;62167;38.552;-121.478;2022-09-01T08:32:55;100982.63;;;20.43;48.56
50464;BME280;62167;38.552;-121.478;2022-09-01T08:35:22;100984.41;;;20.31;48.58
50464;BME280;62167;38.552;-121.478;2022-09-01T08:37:48;100978.50;;;20.34;48.89
50464;BME280;62167;38.552;-121.478;2022-09-01T08:40:17;100983.59;;;20.31;48.92
50464;BME280;62167;38.552;-121.478;2022-09-01T08:45:53;100980.69;;;20.26;49.08
50464;BME280;62167;38.552;-121.478;2022-09-01T08:48:42;100979.59;;;20.27;49.74
50464;BME280;62167;38.552;-121.478;2022-09-01T08:51:56;100983.00;;;20.22;49.41
50464;BME280;62167;38.552;-121.478;2022-09-01T08:54:25;100987.72;;;20.15;49.79
50464;BME280;62167;38.552;-121.478;2022-09-01T08:56:58;100987.38;;;20.05;49.49
50464;BME280;62167;38.552;-121.478;2022-09-01T08:59:26;100981.13;;;19.98;50.11
50464;BME280;62167;38.552;-121.478;2022-09-01T09:09:43;100973.66;;;19.80;50.67
50464;BME280;62167;38.552;-121.478;2022-09-01T09:12:27;100981.63;;;19.81;51.07
50464;BME280;62167;38.552;-121.478;2022-09-01T09:15:09;100989.41;;;19.84;50.84
50464;BME280;62167;38.552;-121.478;2022-09-01T09:17:46;100999.31;;;19.79;50.93
50464;BME280;62167;38.552;-121.478;2022-09-01T09:20:14;100993.22;;;19.77;51.36
50464;BME280;62167;38.552;-121.478;2022-09-01T09:22:41;100993.69;;;19.74;51.40
50464;BME280;62167;38.552;-121.478;2022-09-01T09:25:11;100988.22;;;19.74;51.71
50464;BME280;62167;38.552;-121.478;2022-09-01T09:27:44;101001.47;;;19.70;51.66
50464;BME280;62167;38.552;-121.478;2022-09-01T09:30:11;100997.13;;;19.62;52.18
50464;BME280;62167;38.552;-121.478;2022-09-01T09:32:56;100995.00;;;19.58;51.75
50464;BME280;62167;38.552;-121.478;2022-09-01T09:35:42;100993.53;;;19.55;52.16
50464;BME280;62167;38.552;-121.478;2022-09-01T09:41:22;100996.31;;;19.49;52.45
50464;BME280;62167;38.552;-121.478;2022-09-01T09:46:40;100994.88;;;19.39;52.70
50464;BME280;62167;38.552;-121.478;2022-09-01T09:49:12;100998.88;;;19.30;52.73
50464;BME280;62167;38.552;-121.478;2022-09-01T09:51:39;101004.81;;;19.27;53.75
50464;BME280;62167;38.552;-121.478;2022-09-01T09:54:25;100997.25;;;19.23;52.98
50464;BME280;62167;38.552;-121.478;2022-09-01T09:57:13;100998.97;;;19.17;53.39
50464;BME280;62167;38.552;-121.478;2022-09-01T10:04:59;100989.75;;;19.11;53.53
50464;BME280;62167;38.552;-121.478;2022-09-01T10:07:32;100990.56;;;19.05;54.64
50464;BME280;62167;38.552;-121.478;2022-09-01T10:10:00;100988.28;;;19.02;54.01
50464;BME280;62167;38.552;-121.478;2022-09-01T10:12:26;100997.13;;;18.98;54.29
50464;BME280;62167;38.552;-121.478;2022-09-01T10:14:54;100991.25;;;18.94;54.44
50464;BME280;62167;38.552;-121.478;2022-09-01T10:17:31;100995.25;;;18.91;54.15
50464;BME280;62167;38.552;-121.478;2022-09-01T10:20:00;100991.88;;;18.89;54.52
50464;BME280;62167;38.552;-121.478;2022-09-01T10:22:32;100991.28;;;18.87;54.35
50464;BME280;62167;38.552;-121.478;2022-09-01T10:24:59;100988.13;;;18.84;54.46
50464;BME280;62167;38.552;-121.478;2022-09-01T10:27:30;100990.22;;;18.82;54.48
50464;BME280;62167;38.552;-121.478;2022-09-01T10:30:07;100990.88;;;18.77;55.11
50464;BME280;62167;38.552;-121.478;2022-09-01T10:35:11;100989.63;;;18.73;55.17
50464;BME280;62167;38.552;-121.478;2022-09-01T10:37:38;100989.63;;;18.73;55.07
50464;BME280;62167;38.552;-121.478;2022-09-01T10:40:33;100992.97;;;18.69;55.56
50464;BME280;62167;38.552;-121.478;2022-09-01T10:45:47;100990.22;;;18.62;55.77
50464;BME280;62167;38.552;-121.478;2022-09-01T10:50:47;100997.19;;;18.51;55.91
50464;BME280;62167;38.552;-121.478;2022-09-01T10:58:38;100992.97;;;18.42;56.65
50464;BME280;62167;38.552;-121.478;2022-09-01T11:01:06;100996.53;;;18.42;56.64
50464;BME280;62167;38.552;-121.478;2022-09-01T11:06:07;100990.66;;;18.39;56.51
50464;BME280;62167;38.552;-121.478;2022-09-01T11:18:54;100993.19;;;18.27;57.12
50464;BME280;62167;38.552;-121.478;2022-09-01T11:21:24;101008.50;;;18.28;57.34
50464;BME280;62167;38.552;-121.478;2022-09-01T11:23:51;101004.50;;;18.24;57.79
50464;BME280;62167;38.552;-121.478;2022-09-01T11:26:46;101011.00;;;18.23;57.32
50464;BME280;62167;38.552;-121.478;2022-09-01T11:31:57;101005.34;;;18.18;57.27
50464;BME280;62167;38.552;-121.478;2022-09-01T11:34:23;101001.78;;;18.18;57.33
50464;BME280;62167;38.552;-121.478;2022-09-01T11:36:54;101000.31;;;18.15;57.47
50464;BME280;62167;38.552;-121.478;2022-09-01T11:39:39;100998.63;;;18.14;57.54
50464;BME280;62167;38.552;-121.478;2022-09-01T11:47:28;101004.09;;;18.01;57.70
50464;BME280;62167;38.552;-121.478;2022-09-01T11:49:57;101007.88;;;18.00;57.67
50464;BME280;62167;38.552;-121.478;2022-09-01T11:52:25;100995.69;;;17.96;58.01
50464;BME280;62167;38.552;-121.478;2022-09-01T11:54:51;101008.88;;;17.92;58.06
50464;BME280;62167;38.552;-121.478;2022-09-01T11:59:44;101001.53;;;17.86;58.60
50464;BME280;62167;38.552;-121.478;2022-09-01T12:02:15;101012.66;;;17.84;58.75
50464;BME280;62167;38.552;-121.478;2022-09-01T12:04:41;101010.53;;;17.80;58.71
50464;BME280;62167;38.552;-121.478;2022-09-01T12:07:10;101016.19;;;17.78;59.01
50464;BME280;62167;38.552;-121.478;2022-09-01T12:09:39;101012.84;;;17.76;59.15
50464;BME280;62167;38.552;-121.478;2022-09-01T12:12:06;101005.50;;;17.77;59.01
50464;BME280;62167;38.552;-121.478;2022-09-01T12:14:33;100998.94;;;17.71;59.76
50464;BME280;62167;38.552;-121.478;2022-09-01T12:17:01;101001.91;;;17.70;59.19
50464;BME280;62167;38.552;-121.478;2022-09-01T12:19:30;101012.34;;;17.66;59.24
50464;BME280;62167;38.552;-121.478;2022-09-01T12:22:06;101004.41;;;17.64;59.56
50464;BME280;62167;38.552;-121.478;2022-09-01T12:24:42;101012.13;;;17.61;59.65
50464;BME280;62167;38.552;-121.478;2022-09-01T12:27:08;101008.56;;;17.54;60.02
50464;BME280;62167;38.552;-121.478;2022-09-01T12:29:35;101012.28;;;17.53;60.40
50464;BME280;62167;38.552;-121.478;2022-09-01T12:32:02;101012.28;;;17.53;60.21
50464;BME280;62167;38.552;-121.478;2022-09-01T12:39:43;101017.28;;;17.36;60.75
50464;BME280;62167;38.552;-121.478;2022-09-01T12:49:56;101025.56;;;17.21;61.30
50464;BME280;62167;38.552;-121.478;2022-09-01T12:52:23;101021.81;;;17.22;61.56
50464;BME280;62167;38.552;-121.478;2022-09-01T12:57:38;101023.25;;;17.18;61.93
50464;BME280;62167;38.552;-121.478;2022-09-01T13:00:06;101028.91;;;17.17;61.95
50464;BME280;62167;38.552;-121.478;2022-09-01T13:02:34;101020.94;;;17.15;62.21
50464;BME280;62167;38.552;-121.478;2022-09-01T13:07:45;101022.19;;;17.12;62.02
50464;BME280;62167;38.552;-121.478;2022-09-01T13:10:11;101030.56;;;17.11;62.21
50464;BME280;62167;38.552;-121.478;2022-09-01T13:12:42;101031.81;;;17.08;62.72
50464;BME280;62167;38.552;-121.478;2022-09-01T13:15:08;101032.19;;;17.05;62.75
50464;BME280;62167;38.552;-121.478;2022-09-01T13:17:35;101029.25;;;17.07;62.69
50464;BME280;62167;38.552;-121.478;2022-09-01T13:20:05;101035.75;;;17.06;62.83
50464;BME280;62167;38.552;-121.478;2022-09-01T13:22:32;101037.84;;;17.04;62.70
50464;BME280;62167;38.552;-121.478;2022-09-01T13:24:59;101037.19;;;17.02;63.07
50464;BME280;62167;38.552;-121.478;2022-09-01T13:27:25;101042.22;;;16.98;62.83
50464;BME280;62167;38.552;-121.478;2022-09-01T13:29:51;101050.97;;;16.94;63.16
50464;BME280;62167;38.552;-121.478;2022-09-01T13:32:18;101048.44;;;16.92;63.50
50464;BME280;62167;38.552;-121.478;2022-09-01T13:34:43;101047.84;;;16.97;63.39
50464;BME280;62167;38.552;-121.478;2022-09-01T13:37:09;101046.75;;;16.91;63.94
50464;BME280;62167;38.552;-121.478;2022-09-01T13:39:35;101050.91;;;16.87;64.32
50464;BME280;62167;38.552;-121.478;2022-09-01T13:42:01;101047.78;;;16.83;64.17
50464;BME280;62167;38.552;-121.478;2022-09-01T13:44:27;101052.16;;;16.84;64.23
50464;BME280;62167;38.552;-121.478;2022-09-01T13:46:53;101050.75;;;16.89;64.06
50464;BME280;62167;38.552;-121.478;2022-09-01T13:49:19;101052.38;;;16.83;64.45
50464;BME280;62167;38.552;-121.478;2022-09-01T13:51:51;101056.13;;;16.82;64.50
50464;BME280;62167;38.552;-121.478;2022-09-01T13:54:20;101055.28;;;16.81;64.59
50464;BME280;62167;38.552;-121.478;2022-09-01T13:56:46;101059.41;;;16.77;64.80
50464;BME280;62167;38.552;-121.478;2022-09-01T13:59:12;101053.97;;;16.77;65.07
50464;BME280;62167;38.552;-121.478;2022-09-01T14:01:38;101054.84;;;16.78;64.73